createdAt,value
2019-05-02T00:01:12.911Z,98.97
2019-05-02T00:09:14.078Z,98.64
2019-05-02T00:11:43.654Z,99.54
2019-05-02T00:14:13.065Z,99.95
2019-05-02T00:21:52.997Z,100.00
2019-05-02T00:24:22.310Z,100.00
2019-05-02T00:26:51.611Z,100.00
2019-05-02T00:29:23.713Z,100.00
2019-05-02T00:31:51.950Z,100.00
2019-05-02T00:34:21.247Z,100.00
2019-05-02T00:36:50.575Z,100.00
2019-05-02T00:39:19.967Z,100.00
2019-05-02T00:41:49.258Z,100.00
2019-05-02T00:44:18.544Z,100.00
2019-05-02T00:46:47.918Z,100.00
2019-05-02T00:49:17.199Z,98.85
2019-05-02T00:51:46.485Z,97.46
2019-05-02T00:54:19.304Z,95.97
2019-05-02T00:56:46.834Z,93.96
2019-05-02T00:59:16.155Z,92.38
2019-05-02T01:01:53.630Z,91.68
2019-05-02T01:04:41.829Z,91.49
2019-05-02T01:09:48.031Z,90.93
2019-05-02T01:12:26.175Z,91.20
2019-05-02T01:14:49.183Z,91.68
2019-05-02T01:17:18.494Z,92.14
2019-05-02T01:19:51.399Z,91.88
2019-05-02T01:22:19.044Z,91.35
2019-05-02T01:24:48.353Z,90.95
2019-05-02T01:27:41.299Z,90.89
2019-05-02T01:33:41.848Z,90.18
2019-05-02T01:36:30.939Z,90.02
2019-05-02T01:39:02.997Z,89.39
2019-05-02T01:41:31.276Z,89.03
2019-05-02T01:44:01.663Z,89.00
2019-05-02T01:46:31.590Z,88.88
2019-05-02T01:49:00.950Z,89.01
2019-05-02T01:51:30.276Z,89.16
2019-05-02T01:53:59.516Z,89.03
2019-05-02T01:56:33.028Z,89.30
2019-05-02T01:58:59.848Z,89.30
2019-05-02T02:01:29.164Z,89.34
2019-05-02T02:03:58.475Z,89.34
2019-05-02T02:06:27.783Z,89.10
2019-05-02T02:08:57.101Z,89.19
2019-05-02T02:11:28.332Z,89.21
2019-05-02T02:13:57.412Z,88.55
2019-05-02T02:16:26.736Z,88.17
2019-05-02T02:25:00.987Z,87.54
2019-05-02T02:27:31.499Z,86.74
2019-05-02T02:30:00.792Z,86.57
2019-05-02T02:32:30.097Z,85.93
2019-05-02T02:35:03.402Z,85.67
2019-05-02T02:37:30.459Z,85.30
2019-05-02T02:39:59.776Z,84.63
2019-05-02T02:42:31.565Z,84.59
2019-05-02T02:45:20.443Z,84.12
2019-05-02T02:47:53.167Z,84.10
2019-05-02T02:50:21.071Z,84.28
2019-05-02T02:52:50.381Z,84.10
2019-05-02T02:55:22.074Z,84.37
2019-05-02T02:57:50.681Z,84.62
2019-05-02T03:00:20.072Z,85.14
2019-05-02T03:02:50.149Z,85.44
2019-05-02T03:05:25.960Z,85.75
2019-05-02T03:07:51.451Z,85.80
2019-05-02T03:10:20.710Z,86.06
2019-05-02T03:13:15.198Z,86.16
2019-05-02T03:18:40.460Z,85.97
2019-05-02T03:21:04.619Z,85.73
2019-05-02T03:23:33.938Z,85.58
2019-05-02T03:26:07.818Z,85.59
2019-05-02T03:28:34.288Z,85.75
2019-05-02T03:34:00.585Z,85.98
2019-05-02T03:36:35.709Z,85.73
2019-05-02T03:42:03.604Z,84.80
2019-05-02T03:44:56.178Z,84.86
2019-05-02T03:47:23.451Z,84.52
2019-05-02T03:49:52.896Z,84.48
2019-05-02T03:52:22.185Z,84.14
2019-05-02T03:54:52.600Z,83.46
2019-05-02T03:57:31.672Z,82.74
2019-05-02T04:02:41.906Z,81.64
2019-05-02T04:05:50.514Z,81.33
2019-05-02T04:08:22.284Z,81.19
2019-05-02T04:11:37.832Z,80.02
2019-05-02T04:13:59.970Z,79.27
2019-05-02T04:19:43.955Z,78.97
2019-05-02T04:22:52.566Z,78.02
2019-05-02T04:26:06.716Z,77.02
2019-05-02T04:28:32.345Z,77.42
2019-05-02T04:33:49.896Z,77.50
2019-05-02T04:36:19.196Z,77.71
2019-05-02T04:38:52.158Z,77.66
2019-05-02T04:41:28.868Z,78.01
2019-05-02T04:43:57.703Z,78.33
2019-05-02T04:46:27.095Z,77.19
2019-05-02T04:48:53.261Z,77.21
2019-05-02T04:51:27.446Z,76.03
2019-05-02T04:53:54.915Z,76.38
2019-05-02T04:56:24.231Z,76.40
2019-05-02T04:58:53.544Z,75.23
2019-05-02T05:01:22.850Z,76.03
2019-05-02T05:03:58.389Z,75.67
2019-05-02T05:06:23.203Z,75.77
2019-05-02T05:08:52.513Z,75.07
2019-05-02T05:11:24.983Z,75.06
2019-05-02T05:13:57.465Z,75.00
2019-05-02T05:16:23.922Z,75.83
2019-05-02T05:18:53.370Z,76.78
2019-05-02T05:21:24.795Z,77.88
2019-05-02T05:24:12.626Z,77.97
2019-05-02T05:29:31.958Z,78.39
2019-05-02T05:32:20.227Z,78.48
2019-05-02T05:34:49.565Z,77.99
2019-05-02T05:37:18.904Z,77.87
2019-05-02T05:39:52.413Z,78.30
2019-05-02T05:42:23.188Z,78.13
2019-05-02T05:44:50.350Z,78.37
2019-05-02T05:47:21.268Z,78.14
2019-05-02T05:49:52.158Z,75.77
2019-05-02T05:52:21.753Z,75.34
2019-05-02T05:54:51.061Z,74.91
2019-05-02T05:57:21.244Z,74.98
2019-05-02T05:59:51.400Z,75.75
2019-05-02T06:02:20.720Z,76.95
2019-05-02T06:04:50.371Z,75.88
2019-05-02T06:07:21.079Z,76.00
2019-05-02T06:09:50.422Z,73.95
2019-05-02T06:12:19.759Z,74.64
2019-05-02T06:14:49.094Z,73.57
2019-05-02T06:17:37.483Z,74.30
2019-05-02T06:23:20.979Z,74.00
2019-05-02T06:25:50.294Z,74.65
2019-05-02T06:28:19.592Z,73.79
2019-05-02T06:31:08.718Z,74.80
2019-05-02T06:33:38.806Z,74.48
2019-05-02T06:38:57.838Z,73.26
2019-05-02T06:41:27.679Z,73.54
2019-05-02T06:43:56.999Z,73.67
2019-05-02T06:46:27.719Z,73.04
2019-05-02T06:51:45.635Z,71.12
2019-05-02T06:54:33.992Z,71.85
2019-05-02T06:57:03.300Z,72.85
2019-05-02T06:59:32.677Z,71.61
2019-05-02T07:02:01.961Z,71.51
2019-05-02T07:04:31.255Z,72.58
2019-05-02T07:07:00.767Z,72.42
2019-05-02T07:09:40.581Z,72.98
2019-05-02T07:12:01.698Z,71.85
2019-05-02T07:14:32.223Z,72.37
2019-05-02T07:19:46.930Z,71.29
2019-05-02T07:22:16.245Z,72.56
2019-05-02T07:24:45.561Z,72.03
2019-05-02T07:27:35.573Z,72.07
2019-05-02T07:30:05.560Z,71.54
2019-05-02T07:35:24.541Z,71.71
2019-05-02T07:37:54.280Z,72.99
2019-05-02T07:40:23.607Z,74.51
2019-05-02T07:42:52.913Z,75.21
2019-05-02T07:45:22.220Z,76.06
2019-05-02T07:47:51.537Z,76.54
2019-05-02T07:53:34.590Z,75.29
2019-05-02T07:56:22.843Z,75.12
2019-05-02T07:58:52.460Z,75.47
2019-05-02T08:01:21.833Z,75.38
2019-05-02T08:03:51.136Z,75.46
2019-05-02T08:06:34.365Z,76.37
2019-05-02T08:08:51.477Z,76.15
2019-05-02T08:11:20.825Z,76.81
2019-05-02T08:13:55.809Z,75.92
2019-05-02T08:16:22.498Z,76.97
2019-05-02T08:19:11.165Z,78.29
2019-05-02T08:21:40.550Z,79.43
2019-05-02T08:27:17.144Z,76.07
2019-05-02T08:29:46.460Z,76.58
2019-05-02T08:32:15.757Z,75.59
2019-05-02T08:34:46.021Z,77.37
2019-05-02T08:40:05.444Z,78.69
2019-05-02T08:42:36.171Z,75.95
2019-05-02T08:45:05.823Z,73.99
2019-05-02T08:47:35.192Z,74.30
2019-05-02T08:50:07.634Z,73.45
2019-05-02T08:52:36.740Z,72.05
2019-05-02T08:58:14.560Z,73.05
2019-05-02T09:03:27.323Z,70.92
2019-05-02T09:06:05.485Z,69.21
2019-05-02T09:08:27.647Z,70.50
2019-05-02T09:10:57.081Z,69.22
2019-05-02T09:13:29.348Z,65.14
2019-05-02T09:15:57.468Z,67.91
2019-05-02T09:18:35.142Z,70.49
2019-05-02T09:20:57.866Z,67.92
2019-05-02T09:23:27.681Z,65.54
2019-05-02T09:25:58.268Z,67.96
2019-05-02T09:28:27.610Z,66.69
2019-05-02T09:30:57.366Z,66.14
2019-05-02T09:33:47.083Z,66.78
2019-05-02T09:39:44.003Z,66.11
2019-05-02T09:42:15.666Z,62.57
2019-05-02T09:44:48.070Z,63.56
2019-05-02T09:47:46.974Z,62.32
2019-05-02T09:53:07.121Z,62.26
2019-05-02T09:55:36.477Z,60.01
2019-05-02T09:58:05.967Z,61.38
2019-05-02T10:03:31.959Z,61.13
2019-05-02T10:06:03.160Z,62.08
2019-05-02T10:08:32.883Z,60.00
2019-05-02T10:11:02.954Z,60.39
2019-05-02T10:13:34.286Z,59.11
2019-05-02T10:16:03.658Z,56.63
2019-05-02T10:18:52.386Z,58.04
2019-05-02T10:21:22.856Z,59.76
2019-05-02T10:23:58.972Z,59.43
2019-05-02T10:26:24.761Z,55.78
2019-05-02T10:28:55.140Z,56.90
2019-05-02T10:31:27.639Z,52.84
2019-05-02T10:33:55.535Z,54.60
2019-05-02T10:39:01.752Z,53.98
2019-05-02T10:47:02.881Z,56.47
2019-05-02T10:52:13.387Z,54.48
2019-05-02T10:54:42.732Z,55.17
2019-05-02T10:57:12.716Z,53.62
2019-05-02T10:59:43.194Z,54.91
2019-05-02T11:02:32.759Z,57.04
2019-05-02T11:07:42.813Z,57.54
2019-05-02T11:13:45.268Z,54.59
2019-05-02T11:19:28.266Z,55.13
2019-05-02T11:21:59.102Z,57.84
2019-05-02T11:24:28.649Z,57.19
2019-05-02T11:26:57.976Z,55.62
2019-05-02T11:29:27.287Z,55.35
2019-05-02T11:31:56.716Z,53.39
2019-05-02T11:34:26.046Z,54.15
2019-05-02T11:36:55.475Z,54.16
2019-05-02T11:39:33.652Z,53.45
2019-05-02T11:44:44.234Z,53.72
2019-05-02T11:47:17.216Z,54.00
2019-05-02T11:49:46.769Z,53.40
2019-05-02T11:58:01.008Z,53.76
2019-05-02T12:00:32.327Z,53.60
2019-05-02T12:03:21.958Z,51.56
2019-05-02T12:05:52.532Z,50.99
2019-05-02T12:08:23.040Z,52.96
2019-05-02T12:10:52.399Z,50.99
2019-05-02T12:13:22.685Z,50.87
2019-05-02T12:15:52.913Z,50.30
2019-05-02T12:18:23.287Z,50.73
2019-05-02T12:20:53.594Z,48.05
2019-05-02T12:23:22.995Z,49.94
2019-05-02T12:25:52.299Z,48.68
2019-05-02T12:28:22.918Z,50.61
2019-05-02T12:30:52.851Z,49.80
2019-05-02T12:36:12.127Z,51.35
2019-05-02T12:38:42.023Z,50.58
2019-05-02T12:41:20.280Z,51.06
2019-05-02T12:43:43.809Z,52.01
2019-05-02T12:46:13.136Z,51.05
2019-05-02T12:48:42.453Z,52.28
2019-05-02T12:51:12.732Z,53.60
2019-05-02T12:53:42.808Z,52.22
2019-05-02T12:56:12.146Z,52.32
2019-05-02T12:58:42.094Z,50.00
2019-05-02T13:01:12.521Z,50.17
2019-05-02T13:04:02.637Z,51.80
2019-05-02T13:06:32.766Z,51.53
2019-05-02T13:12:13.317Z,47.44
2019-05-02T13:14:42.802Z,48.06
2019-05-02T13:17:12.136Z,49.33
2019-05-02T13:19:55.394Z,48.75
2019-05-02T13:24:58.573Z,48.04
2019-05-02T13:28:07.203Z,49.84
2019-05-02T13:30:47.248Z,50.20
2019-05-02T13:33:55.873Z,50.98
2019-05-02T13:42:23.156Z,48.97
2019-05-02T13:47:52.320Z,47.75
2019-05-02T13:50:22.321Z,47.43
2019-05-02T13:52:57.690Z,44.02
2019-05-02T13:58:03.960Z,47.34
2019-05-02T14:06:12.276Z,46.96
2019-05-02T14:09:00.239Z,46.76
2019-05-02T14:11:48.442Z,47.34
2019-05-02T14:14:17.731Z,49.01
2019-05-02T14:16:47.144Z,47.99
2019-05-02T14:19:16.448Z,48.17
2019-05-02T14:21:45.741Z,46.18
2019-05-02T14:24:15.049Z,48.20
2019-05-02T14:26:44.398Z,47.78
2019-05-02T14:29:16.361Z,48.60
2019-05-02T14:34:42.683Z,44.09
2019-05-02T14:37:12.004Z,46.39
2019-05-02T14:42:32.268Z,48.22
2019-05-02T14:45:27.492Z,42.76
2019-05-02T14:47:45.288Z,46.21
2019-05-02T14:53:29.133Z,50.29
2019-05-02T14:58:48.370Z,52.54
2019-05-02T15:01:24.459Z,53.17
2019-05-02T15:03:48.693Z,54.14
2019-05-02T15:06:18.764Z,53.56
2019-05-02T15:08:52.520Z,53.91
2019-05-02T15:11:30.449Z,54.52
2019-05-02T15:13:52.634Z,53.68
2019-05-02T15:16:24.936Z,54.34
2019-05-02T15:18:57.047Z,54.43
2019-05-02T15:21:55.979Z,55.09
2019-05-02T15:27:19.193Z,54.92
2019-05-02T15:29:48.533Z,54.22
2019-05-02T15:32:37.242Z,55.96
2019-05-02T15:35:47.184Z,56.08
2019-05-02T15:41:09.510Z,56.44
2019-05-02T15:43:39.276Z,56.22
2019-05-02T15:46:08.409Z,56.09
2019-05-02T15:48:37.716Z,56.82
2019-05-02T15:51:08.973Z,57.58
2019-05-02T15:54:06.086Z,58.40
2019-05-02T15:56:28.026Z,58.98
2019-05-02T15:58:57.973Z,59.74
2019-05-02T16:01:47.963Z,60.97
2019-05-02T16:09:43.067Z,61.78
2019-05-02T16:12:12.447Z,61.72
2019-05-02T16:14:42.440Z,61.01
2019-05-02T16:17:17.567Z,60.01
2019-05-02T16:19:48.459Z,60.49
2019-05-02T16:22:19.038Z,60.93
2019-05-02T16:28:04.607Z,61.44
2019-05-02T16:30:32.020Z,60.96
2019-05-02T16:33:02.747Z,60.91
2019-05-02T16:35:34.335Z,60.92
2019-05-02T16:38:03.603Z,61.11
2019-05-02T16:41:12.217Z,61.10
2019-05-02T16:43:41.953Z,61.19
2019-05-02T16:46:14.137Z,59.19
2019-05-02T16:48:43.566Z,59.21
2019-05-02T16:51:30.238Z,57.13
2019-05-02T16:54:05.012Z,57.45
2019-05-02T16:56:37.012Z,54.92
2019-05-02T16:59:04.898Z,53.53
2019-05-02T17:01:34.160Z,53.61
2019-05-02T17:04:06.684Z,54.07
2019-05-02T17:09:38.473Z,54.74
2019-05-02T17:12:06.496Z,53.04
2019-05-02T17:17:26.527Z,55.33
2019-05-02T17:19:55.776Z,53.65
2019-05-02T17:22:25.143Z,54.02
2019-05-02T17:24:57.048Z,54.30
2019-05-02T17:27:25.528Z,55.24
2019-05-02T17:29:59.339Z,54.54
2019-05-02T17:32:28.854Z,54.55
2019-05-02T17:34:56.923Z,56.31
2019-05-02T17:37:26.245Z,56.00
2019-05-02T17:39:55.506Z,56.27
2019-05-02T17:42:25.837Z,56.53
2019-05-02T17:45:15.384Z,56.67
2019-05-02T17:48:10.436Z,56.67
2019-05-02T17:50:56.086Z,56.99
2019-05-02T17:53:24.748Z,56.48
2019-05-02T17:56:20.863Z,57.46
2019-05-02T18:01:37.618Z,57.62
2019-05-02T18:04:16.638Z,57.51
2019-05-02T18:06:52.354Z,57.46
2019-05-02T18:09:30.966Z,57.88
2019-05-02T18:11:49.544Z,58.30
2019-05-02T18:14:21.198Z,58.77
2019-05-02T18:16:52.018Z,58.99
2019-05-02T18:19:24.571Z,59.49
2019-05-02T18:21:52.580Z,59.69
2019-05-02T18:24:23.060Z,59.76
2019-05-02T18:26:52.392Z,59.29
2019-05-02T18:29:42.599Z,59.89
2019-05-02T18:32:30.683Z,60.10
2019-05-02T18:35:02.442Z,60.62
2019-05-02T18:37:32.603Z,61.05
2019-05-02T18:40:03.029Z,61.31
2019-05-02T18:42:32.889Z,61.03
2019-05-02T18:45:42.590Z,61.18
2019-05-02T18:48:12.804Z,61.71
2019-05-02T18:54:04.362Z,62.59
2019-05-02T18:56:46.410Z,63.10
2019-05-02T18:59:14.385Z,63.50
2019-05-02T19:01:47.349Z,63.88
2019-05-02T19:04:17.892Z,64.28
2019-05-02T19:07:07.549Z,64.59
2019-05-02T19:09:58.966Z,64.75
2019-05-02T19:12:46.188Z,65.18
2019-05-02T19:17:50.210Z,65.39
2019-05-02T19:20:57.874Z,65.52
2019-05-02T19:23:46.276Z,65.33
2019-05-02T19:26:15.588Z,65.56
2019-05-02T19:29:08.401Z,65.79
2019-05-02T19:34:35.989Z,65.73
2019-05-02T19:37:05.339Z,66.17
2019-05-02T19:39:56.802Z,66.24
2019-05-02T19:42:29.209Z,66.92
2019-05-02T19:45:03.778Z,66.46
2019-05-02T19:47:48.965Z,66.44
2019-05-02T19:50:43.748Z,66.62
2019-05-02T19:53:18.170Z,66.93
2019-05-02T19:55:42.992Z,66.93
2019-05-02T20:04:05.939Z,67.53
2019-05-02T20:06:33.126Z,66.76
2019-05-02T20:09:04.808Z,66.28
2019-05-02T20:11:34.441Z,66.15
2019-05-02T20:14:09.374Z,65.32
2019-05-02T20:22:15.835Z,63.75
2019-05-02T20:25:04.084Z,63.61
2019-05-02T20:27:33.353Z,63.48
2019-05-02T20:30:03.065Z,62.84
2019-05-02T20:32:33.689Z,62.56
2019-05-02T20:35:03.101Z,61.00
2019-05-02T20:37:32.552Z,60.05
2019-05-02T20:40:02.745Z,60.00
2019-05-02T20:42:32.849Z,59.05
2019-05-02T20:45:02.443Z,59.22
2019-05-02T20:47:52.393Z,60.12
2019-05-02T20:50:22.419Z,59.45
2019-05-02T20:52:52.913Z,60.47
2019-05-02T20:55:22.253Z,60.26
2019-05-02T20:57:52.716Z,58.99
2019-05-02T21:00:43.291Z,59.62
2019-05-02T21:03:12.592Z,59.83
2019-05-02T21:06:02.918Z,59.59
2019-05-02T21:08:52.578Z,59.36
2019-05-02T21:14:12.272Z,58.71
2019-05-02T21:16:42.689Z,59.17
2019-05-02T21:19:12.450Z,57.36
2019-05-02T21:24:43.909Z,58.05
2019-05-02T21:27:32.505Z,57.97
2019-05-02T21:30:03.375Z,56.44
2019-05-02T21:32:32.652Z,55.60
2019-05-02T21:35:02.779Z,56.95
2019-05-02T21:37:33.042Z,57.18
2019-05-02T21:40:02.842Z,56.64
2019-05-02T21:42:33.350Z,57.02
2019-05-02T21:45:02.639Z,56.83
2019-05-02T21:47:31.973Z,57.42
2019-05-02T21:50:21.763Z,55.60
2019-05-02T21:53:10.206Z,56.69
2019-05-02T21:55:58.452Z,57.66
2019-05-02T21:58:42.756Z,57.77
2019-05-02T22:03:49.837Z,56.34
2019-05-02T22:06:19.119Z,55.68
2019-05-02T22:08:48.407Z,57.23
2019-05-02T22:11:17.690Z,57.12
2019-05-02T22:13:46.989Z,55.72
2019-05-02T22:16:16.258Z,55.22
2019-05-02T22:18:45.560Z,56.46
2019-05-02T22:21:14.843Z,55.66
2019-05-02T22:23:44.129Z,55.27
2019-05-02T22:26:13.474Z,55.71
2019-05-02T22:28:42.755Z,56.55
2019-05-02T22:31:12.464Z,56.84
2019-05-02T22:33:44.612Z,55.89
2019-05-02T22:36:14.075Z,55.56
2019-05-02T22:39:02.315Z,55.76
2019-05-02T22:41:32.574Z,56.63
2019-05-02T22:44:02.777Z,56.70
2019-05-02T22:46:52.070Z,56.87
2019-05-02T22:49:22.490Z,55.96
2019-05-02T22:51:52.977Z,55.44
2019-05-02T22:54:28.983Z,55.48
2019-05-02T22:56:53.280Z,55.35
2019-05-02T22:59:23.994Z,54.47
2019-05-02T23:01:53.587Z,56.68
2019-05-02T23:04:23.575Z,57.29
2019-05-02T23:06:53.891Z,57.23
2019-05-02T23:09:23.180Z,56.69
2019-05-02T23:11:52.469Z,55.82
2019-05-02T23:14:22.285Z,56.59
2019-05-02T23:16:53.032Z,56.53
2019-05-02T23:19:22.955Z,57.51
2019-05-02T23:21:53.331Z,57.60
2019-05-02T23:24:42.578Z,58.44
2019-05-02T23:27:31.781Z,59.04
2019-05-02T23:30:02.894Z,59.36
2019-05-02T23:35:20.360Z,59.96
2019-05-02T23:37:49.629Z,60.23
2019-05-02T23:43:14.464Z,60.82
2019-05-02T23:45:43.752Z,60.85
2019-05-02T23:48:13.030Z,61.15
2019-05-02T23:50:42.303Z,61.42
2019-05-02T23:53:12.827Z,62.07
2019-05-02T23:55:42.692Z,62.25
2019-05-02T23:58:12.026Z,62.45
